createdAt,value
2022-11-26T00:02:22.558Z,98727.44
2022-11-26T00:04:51.248Z,98727.34
2022-11-26T00:07:22.528Z,98732.56
2022-11-26T00:09:50.887Z,98733.81
2022-11-26T00:12:21.931Z,98729.00
2022-11-26T00:14:51.622Z,98740.50
2022-11-26T00:17:20.386Z,98738.44
2022-11-26T00:19:48.888Z,98751.28
2022-11-26T00:22:24.453Z,98738.16
2022-11-26T00:24:53.686Z,98751.09
2022-11-26T00:27:22.652Z,98756.53
2022-11-26T00:29:52.122Z,98754.88
2022-11-26T00:32:23.733Z,98762.34
2022-11-26T00:34:52.027Z,98761.28
2022-11-26T00:37:22.533Z,98759.56
2022-11-26T00:39:50.911Z,98770.03
2022-11-26T00:42:19.756Z,98766.56
2022-11-26T00:44:47.885Z,98774.69
2022-11-26T00:47:17.616Z,98776.25
2022-11-26T00:49:45.652Z,98776.59
2022-11-26T00:52:23.791Z,98770.66
2022-11-26T00:54:51.990Z,98774.94
2022-11-26T00:57:20.397Z,98774.38
2022-11-26T00:59:48.512Z,98777.06
2022-11-26T01:02:18.178Z,98779.38
2022-11-26T01:04:46.317Z,98777.53
2022-11-26T01:07:14.795Z,98773.34
2022-11-26T01:09:44.030Z,98781.69
2022-11-26T01:12:14.028Z,98783.66
2022-11-26T01:14:42.099Z,98786.81
2022-11-26T01:17:12.466Z,98783.59
2022-11-26T01:19:42.033Z,98792.03
2022-11-26T01:22:20.987Z,98784.25
2022-11-26T01:24:50.002Z,98786.56
2022-11-26T01:27:20.904Z,98790.78
2022-11-26T01:29:49.100Z,98790.16
2022-11-26T01:32:17.456Z,98797.13
2022-11-26T01:34:46.836Z,98790.63
2022-11-26T01:37:15.523Z,98794.13
2022-11-26T01:39:43.572Z,98788.63
2022-11-26T01:42:23.238Z,98788.81
2022-11-26T01:44:51.237Z,98802.41
2022-11-26T01:47:23.292Z,98797.03
2022-11-26T01:50:29.013Z,98793.00
2022-11-26T01:53:02.516Z,98799.19
2022-11-26T01:55:43.499Z,98801.06
2022-11-26T01:58:14.486Z,98794.94
2022-11-26T02:00:42.816Z,98800.88
2022-11-26T02:03:11.539Z,98799.09
2022-11-26T02:05:43.645Z,98791.88
2022-11-26T02:08:13.782Z,98792.88
2022-11-26T02:10:41.985Z,98801.53
2022-11-26T02:13:10.373Z,98800.19
2022-11-26T02:15:44.551Z,98795.38
2022-11-26T02:18:13.343Z,98806.72
2022-11-26T02:20:51.808Z,98803.38
2022-11-26T02:23:43.640Z,98803.00
2022-11-26T02:27:05.474Z,98803.56
2022-11-26T02:29:51.635Z,98803.25
2022-11-26T02:32:22.188Z,98807.47
2022-11-26T02:34:56.060Z,98807.03
2022-11-26T02:37:27.112Z,98806.31
2022-11-26T02:39:55.274Z,98810.66
2022-11-26T02:42:26.637Z,98813.63
2022-11-26T02:44:59.096Z,98808.88
2022-11-26T02:47:28.557Z,98816.16
2022-11-26T02:49:58.636Z,98819.19
2022-11-26T02:52:28.764Z,98820.28
2022-11-26T02:54:58.422Z,98821.28
2022-11-26T02:57:29.188Z,98817.16
2022-11-26T02:59:59.179Z,98817.25
2022-11-26T03:02:30.604Z,98815.19
2022-11-26T03:05:01.619Z,98815.34
2022-11-26T03:07:30.703Z,98816.44
2022-11-26T03:10:00.715Z,98815.34
2022-11-26T03:12:29.028Z,98805.38
2022-11-26T03:14:59.050Z,98814.28
2022-11-26T03:17:27.190Z,98819.81
2022-11-26T03:19:55.608Z,98821.81
2022-11-26T03:22:23.566Z,98810.75
2022-11-26T03:24:51.941Z,98824.03
2022-11-26T03:27:20.049Z,98823.53
2022-11-26T03:29:48.496Z,98819.25
2022-11-26T03:32:18.141Z,98826.34
2022-11-26T03:34:46.658Z,98824.34
2022-11-26T03:37:14.991Z,98827.59
2022-11-26T03:39:43.515Z,98828.22
2022-11-26T03:42:12.080Z,98834.34
2022-11-26T03:44:40.750Z,98828.75
2022-11-26T03:47:08.905Z,98830.78
2022-11-26T03:49:38.785Z,98838.72
2022-11-26T03:52:06.781Z,98825.94
2022-11-26T03:54:35.383Z,98832.53
2022-11-26T03:57:03.588Z,98829.53
2022-11-26T03:59:32.003Z,98837.28
2022-11-26T04:02:00.105Z,98833.31
2022-11-26T04:04:28.438Z,98833.66
2022-11-26T04:06:57.940Z,98836.56
2022-11-26T04:09:26.398Z,98835.63
2022-11-26T04:11:54.494Z,98838.59
2022-11-26T04:14:23.264Z,98837.13
2022-11-26T04:16:51.467Z,98847.59
2022-11-26T04:19:19.965Z,98850.03
2022-11-26T04:21:47.987Z,98848.16
2022-11-26T04:24:17.825Z,98846.41
2022-11-26T04:26:45.904Z,98861.44
2022-11-26T04:29:14.327Z,98874.44
2022-11-26T04:31:42.395Z,98864.78
2022-11-26T04:34:11.071Z,98865.03
2022-11-26T04:36:39.598Z,98869.84
2022-11-26T04:39:08.084Z,98868.28
2022-11-26T04:41:37.552Z,98872.78
2022-11-26T04:44:06.286Z,98865.25
2022-11-26T04:46:34.355Z,98876.78
2022-11-26T04:49:02.623Z,98877.84
2022-11-26T04:51:30.811Z,98873.22
2022-11-26T04:54:02.759Z,98876.03
2022-11-26T04:56:31.367Z,98879.72
2022-11-26T04:59:01.126Z,98873.13
2022-11-26T05:01:29.249Z,98883.50
2022-11-26T05:03:57.806Z,98880.34
2022-11-26T05:06:25.901Z,98882.41
2022-11-26T05:08:54.334Z,98885.88
2022-11-26T05:11:22.359Z,98890.19
2022-11-26T05:13:50.756Z,98898.94
2022-11-26T05:16:20.393Z,98898.34
2022-11-26T05:18:48.723Z,98891.44
2022-11-26T05:21:16.795Z,98897.94
2022-11-26T05:23:45.137Z,98898.44
2022-11-26T05:26:13.401Z,98903.56
2022-11-26T05:28:41.710Z,98894.91
2022-11-26T05:31:09.959Z,98899.09
2022-11-26T05:33:39.788Z,98899.91
2022-11-26T05:36:08.261Z,98908.09
2022-11-26T05:38:36.583Z,98910.31
2022-11-26T05:41:04.944Z,98915.53
2022-11-26T05:43:33.325Z,98915.34
2022-11-26T05:46:05.130Z,98919.59
2022-11-26T05:48:33.585Z,98918.25
2022-11-26T05:51:03.661Z,98923.72
2022-11-26T05:53:31.998Z,98926.91
2022-11-26T05:56:00.153Z,98931.53
2022-11-26T05:58:28.495Z,98928.75
2022-11-26T06:00:56.580Z,98934.25
2022-11-26T06:03:25.117Z,98933.66
2022-11-26T06:05:53.276Z,98940.53
2022-11-26T06:08:23.041Z,98940.44
2022-11-26T06:10:54.070Z,98947.88
2022-11-26T06:13:22.602Z,98942.56
2022-11-26T06:15:52.007Z,98948.03
2022-11-26T06:18:20.360Z,98950.44
2022-11-26T06:20:48.540Z,98946.81
2022-11-26T06:23:17.009Z,98946.03
2022-11-26T06:25:46.589Z,98947.34
2022-11-26T06:28:15.114Z,98952.13
2022-11-26T06:30:45.384Z,98957.47
2022-11-26T06:33:13.767Z,98958.66
2022-11-26T06:35:41.891Z,98956.50
2022-11-26T06:38:10.399Z,98956.44
2022-11-26T06:40:38.726Z,98957.34
2022-11-26T06:43:08.583Z,98964.06
2022-11-26T06:45:36.741Z,98961.38
2022-11-26T06:48:05.313Z,98962.09
2022-11-26T06:50:33.526Z,98969.34
2022-11-26T06:53:01.975Z,98972.13
2022-11-26T06:55:30.133Z,98978.72
2022-11-26T06:57:58.557Z,98985.47
2022-11-26T07:00:28.179Z,98986.00
2022-11-26T07:02:56.510Z,98988.31
2022-11-26T07:05:24.674Z,98998.56
2022-11-26T07:07:53.128Z,98995.06
2022-11-26T07:10:21.378Z,98998.06
2022-11-26T07:12:49.672Z,98999.44
2022-11-26T07:15:17.956Z,99001.91
2022-11-26T07:17:47.616Z,98996.56
2022-11-26T07:20:16.124Z,99006.19
2022-11-26T07:22:44.659Z,99010.81
2022-11-26T07:25:13.112Z,99005.34
2022-11-26T07:27:41.815Z,99006.63
2022-11-26T07:30:10.971Z,99008.56
2022-11-26T07:32:39.492Z,99011.78
2022-11-26T07:35:09.407Z,99006.47
2022-11-26T07:37:37.808Z,99007.22
2022-11-26T07:40:07.839Z,99014.38
2022-11-26T07:42:36.445Z,99021.44
2022-11-26T07:45:04.973Z,99013.53
2022-11-26T07:47:33.476Z,99017.84
2022-11-26T07:50:01.745Z,99023.34
2022-11-26T07:52:31.564Z,99035.94
2022-11-26T07:54:59.627Z,99025.66
2022-11-26T07:57:28.032Z,99024.28
2022-11-26T07:59:56.105Z,99033.25
2022-11-26T08:02:24.703Z,99037.69
2022-11-26T08:04:53.660Z,99040.34
2022-11-26T08:07:26.123Z,99044.31
2022-11-26T08:09:58.484Z,99041.06
2022-11-26T08:12:27.397Z,99047.25
2022-11-26T08:14:55.387Z,99045.91
2022-11-26T08:17:23.756Z,99054.16
2022-11-26T08:19:51.819Z,99047.69
2022-11-26T08:22:20.290Z,99052.97
2022-11-26T08:24:48.363Z,99045.50
2022-11-26T08:27:18.584Z,99044.81
2022-11-26T08:29:46.709Z,99046.00
2022-11-26T08:32:15.114Z,99045.91
2022-11-26T08:34:43.380Z,99056.88
2022-11-26T08:37:11.682Z,99054.09
2022-11-26T08:39:40.128Z,99060.69
2022-11-26T08:42:08.473Z,99052.31
2022-11-26T08:44:38.196Z,99060.69
2022-11-26T08:47:06.750Z,99066.09
2022-11-26T08:49:34.793Z,99066.88
2022-11-26T08:52:03.279Z,99070.13
2022-11-26T08:54:31.358Z,99072.28
2022-11-26T08:56:59.864Z,99073.44
2022-11-26T08:59:27.910Z,99085.09
2022-11-26T09:01:57.685Z,99083.63
2022-11-26T09:04:28.472Z,99086.28
2022-11-26T09:06:56.984Z,99081.94
2022-11-26T09:09:25.383Z,99082.81
2022-11-26T09:11:55.151Z,99092.03
2022-11-26T09:14:25.697Z,99086.56
2022-11-26T09:16:54.736Z,99094.13
2022-11-26T09:19:25.247Z,99093.50
2022-11-26T09:21:53.589Z,99097.41
2022-11-26T09:24:23.172Z,99097.88
2022-11-26T09:26:51.504Z,99099.31
2022-11-26T09:29:21.673Z,99103.94
2022-11-26T09:32:21.257Z,99101.94
2022-11-26T09:34:40.423Z,99094.53
2022-11-26T09:37:09.193Z,99101.91
2022-11-26T09:39:37.211Z,99096.56
2022-11-26T09:42:07.276Z,99099.53
2022-11-26T09:44:51.150Z,99099.41
2022-11-26T09:47:22.383Z,99094.63
2022-11-26T09:50:01.108Z,99103.19
2022-11-26T09:52:32.197Z,99101.75
2022-11-26T09:55:06.974Z,99099.97
2022-11-26T09:57:41.351Z,99097.91
2022-11-26T10:00:21.840Z,99111.06
2022-11-26T10:02:53.543Z,99104.38
2022-11-26T10:05:24.992Z,99098.53
2022-11-26T10:08:04.472Z,99091.53
2022-11-26T10:10:39.859Z,99098.09
2022-11-26T10:13:19.436Z,99097.63
2022-11-26T10:15:56.315Z,99092.13
2022-11-26T10:18:34.221Z,99100.59
2022-11-26T10:21:13.961Z,99103.81
2022-11-26T10:23:45.608Z,99096.31
2022-11-26T10:26:14.076Z,99100.47
2022-11-26T10:28:46.602Z,99100.06
2022-11-26T10:31:21.154Z,99107.44
2022-11-26T10:33:56.079Z,99104.16
2022-11-26T10:36:27.828Z,99102.22
2022-11-26T10:38:57.370Z,99107.94
2022-11-26T10:41:28.142Z,99092.66
2022-11-26T10:43:56.460Z,99097.59
2022-11-26T10:46:35.556Z,99092.91
2022-11-26T10:49:18.046Z,99101.47
2022-11-26T10:51:49.560Z,99092.56
2022-11-26T10:54:29.835Z,99095.38
2022-11-26T10:57:03.693Z,99087.09
2022-11-26T10:59:36.551Z,99082.47
2022-11-26T11:02:14.148Z,99090.13
2022-11-26T11:04:46.158Z,99089.56
2022-11-26T11:07:32.824Z,99092.97
2022-11-26T11:10:06.539Z,99092.31
2022-11-26T11:12:34.776Z,99099.97
2022-11-26T11:15:22.046Z,99088.41
2022-11-26T11:17:57.021Z,99094.53
2022-11-26T11:20:31.205Z,99096.50
2022-11-26T11:23:04.253Z,99097.25
2022-11-26T11:25:34.484Z,99091.97
2022-11-26T11:28:11.770Z,99098.91
2022-11-26T11:30:42.293Z,99092.88
2022-11-26T11:33:13.152Z,99094.00
2022-11-26T11:35:41.828Z,99104.53
2022-11-26T11:38:23.676Z,99101.09
2022-11-26T11:40:52.301Z,99105.97
2022-11-26T11:43:22.693Z,99100.91
2022-11-26T11:46:15.075Z,99102.47
2022-11-26T11:48:51.715Z,99105.41
2022-11-26T11:51:26.031Z,99108.41
2022-11-26T11:54:03.858Z,99107.06
2022-11-26T11:56:36.702Z,99108.41
2022-11-26T11:59:18.056Z,99113.44
2022-11-26T12:02:05.049Z,99120.03
2022-11-26T12:04:52.242Z,99110.69
2022-11-26T12:07:33.165Z,99114.94
2022-11-26T12:10:08.047Z,99109.78
2022-11-26T12:12:38.089Z,99119.25
2022-11-26T12:15:10.037Z,99111.16
2022-11-26T12:17:41.536Z,99113.91
2022-11-26T12:20:21.254Z,99121.94
2022-11-26T12:22:53.065Z,99118.84
2022-11-26T12:25:33.554Z,99123.31
2022-11-26T12:28:07.067Z,99126.81
2022-11-26T12:30:42.069Z,99123.03
2022-11-26T12:33:16.182Z,99123.38
2022-11-26T12:35:47.169Z,99131.00
2022-11-26T12:38:20.178Z,99127.00
2022-11-26T12:40:54.269Z,99127.84
2022-11-26T12:43:27.905Z,99123.75
2022-11-26T12:45:59.838Z,99125.38
2022-11-26T12:48:42.813Z,99122.22
2022-11-26T12:51:21.353Z,99126.06
2022-11-26T12:53:53.761Z,99129.34
2022-11-26T12:56:27.255Z,99125.56
2022-11-26T12:59:00.980Z,99129.94
2022-11-26T13:01:29.619Z,99127.41
2022-11-26T13:04:21.609Z,99126.34
2022-11-26T13:06:56.276Z,99126.13
2022-11-26T13:09:36.294Z,99125.88
2022-11-26T13:12:10.962Z,99134.91
2022-11-26T13:14:43.219Z,99124.75
2022-11-26T13:17:14.080Z,99128.34
2022-11-26T13:19:45.000Z,99129.16
2022-11-26T13:22:34.491Z,99140.16
2022-11-26T13:25:20.987Z,99140.13
2022-11-26T13:27:56.697Z,99139.59
2022-11-26T13:30:27.852Z,99132.97
2022-11-26T13:33:28.938Z,99139.59
2022-11-26T13:36:17.027Z,99143.44
2022-11-26T13:38:53.233Z,99148.06
2022-11-26T13:41:27.993Z,99151.56
2022-11-26T13:44:21.943Z,99153.81
2022-11-26T13:46:52.412Z,99149.84
2022-11-26T13:49:25.785Z,99153.44
2022-11-26T13:51:57.064Z,99152.31
2022-11-26T13:54:28.280Z,99153.69
2022-11-26T13:57:00.034Z,99153.69
2022-11-26T13:59:29.317Z,99156.59
2022-11-26T14:01:57.932Z,99150.75
2022-11-26T14:04:54.783Z,99154.91
2022-11-26T14:07:23.683Z,99152.94
2022-11-26T14:09:54.580Z,99160.19
2022-11-26T14:12:24.136Z,99162.06
2022-11-26T14:14:53.838Z,99161.81
2022-11-26T14:17:28.972Z,99166.19
2022-11-26T14:20:07.409Z,99166.91
2022-11-26T14:22:37.060Z,99162.25
2022-11-26T14:25:08.118Z,99167.81
2022-11-26T14:27:37.007Z,99169.16
2022-11-26T14:30:28.223Z,99165.47
2022-11-26T14:33:05.774Z,99164.81
2022-11-26T14:35:35.997Z,99163.88
2022-11-26T14:38:05.830Z,99167.63
2022-11-26T14:40:35.982Z,99166.84
2022-11-26T14:43:09.269Z,99176.22
2022-11-26T14:45:38.826Z,99175.88
2022-11-26T14:48:07.295Z,99185.22
2022-11-26T14:50:37.528Z,99173.19
2022-11-26T14:53:07.858Z,99175.38
2022-11-26T14:55:36.248Z,99185.03
2022-11-26T14:58:09.579Z,99181.59
2022-11-26T15:00:39.526Z,99187.91
2022-11-26T15:03:20.578Z,99196.03
2022-11-26T15:05:48.793Z,99197.50
2022-11-26T15:08:19.407Z,99204.81
2022-11-26T15:10:51.225Z,99197.28
2022-11-26T15:13:25.767Z,99199.19
2022-11-26T15:15:56.635Z,99204.16
2022-11-26T15:18:32.214Z,99206.09
2022-11-26T15:21:02.062Z,99210.41
2022-11-26T15:23:32.951Z,99208.78
2022-11-26T15:26:01.430Z,99207.75
2022-11-26T15:28:30.097Z,99211.06
2022-11-26T15:31:01.285Z,99214.25
2022-11-26T15:33:32.128Z,99206.03
2022-11-26T15:36:00.414Z,99207.69
2022-11-26T15:38:30.425Z,99214.19
2022-11-26T15:41:02.032Z,99214.75
2022-11-26T15:43:31.966Z,99216.91
2022-11-26T15:46:03.811Z,99216.09
2022-11-26T15:48:51.656Z,99224.06
2022-11-26T15:51:24.942Z,99226.53
2022-11-26T15:53:53.464Z,99221.78
2022-11-26T15:56:24.215Z,99222.66
2022-11-26T15:58:55.448Z,99221.88
2022-11-26T16:01:28.325Z,99231.19
2022-11-26T16:03:57.562Z,99233.97
2022-11-26T16:06:31.674Z,99240.16
2022-11-26T16:09:03.407Z,99245.00
2022-11-26T16:11:34.480Z,99245.03
2022-11-26T16:14:24.799Z,99250.06
2022-11-26T16:16:54.449Z,99247.25
2022-11-26T16:19:23.113Z,99258.69
2022-11-26T16:21:52.357Z,99260.75
2022-11-26T16:24:29.557Z,99256.63
2022-11-26T16:26:58.956Z,99258.31
2022-11-26T16:29:28.010Z,99256.75
2022-11-26T16:31:57.887Z,99258.69
2022-11-26T16:34:28.015Z,99259.34
2022-11-26T16:37:01.964Z,99266.94
2022-11-26T16:39:33.789Z,99266.34
2022-11-26T16:42:09.804Z,99266.53
2022-11-26T16:44:38.692Z,99269.47
2022-11-26T16:47:11.246Z,99275.97
2022-11-26T16:49:39.816Z,99280.69
2022-11-26T16:52:12.624Z,99281.41
2022-11-26T16:54:41.324Z,99282.94
2022-11-26T16:57:13.598Z,99290.16
2022-11-26T16:59:43.063Z,99299.09
2022-11-26T17:02:17.754Z,99301.09
2022-11-26T17:04:46.942Z,99292.63
2022-11-26T17:07:16.917Z,99312.19
2022-11-26T17:09:45.532Z,99311.41
2022-11-26T17:12:17.510Z,99320.53
2022-11-26T17:14:46.661Z,99314.38
2022-11-26T17:17:20.522Z,99324.47
2022-11-26T17:19:52.292Z,99319.31
2022-11-26T17:22:20.346Z,99323.53
2022-11-26T17:24:50.923Z,99322.50
2022-11-26T17:27:21.132Z,99326.25
2022-11-26T17:29:49.846Z,99328.38
2022-11-26T17:32:20.584Z,99330.19
2022-11-26T17:34:49.122Z,99338.72
2022-11-26T17:37:23.815Z,99336.00
2022-11-26T17:39:52.454Z,99343.59
2022-11-26T17:42:21.871Z,99340.78
2022-11-26T17:44:50.473Z,99337.31
2022-11-26T17:47:21.414Z,99338.25
2022-11-26T17:49:50.371Z,99345.84
2022-11-26T17:52:18.798Z,99344.84
2022-11-26T17:54:47.812Z,99340.94
2022-11-26T17:57:16.840Z,99346.47
2022-11-26T17:59:46.015Z,99350.72
2022-11-26T18:02:14.317Z,99352.72
2022-11-26T18:04:44.119Z,99349.31
2022-11-26T18:07:14.756Z,99353.00
2022-11-26T18:09:43.594Z,99351.88
2022-11-26T18:12:23.186Z,99354.16
2022-11-26T18:14:53.605Z,99356.69
2022-11-26T18:17:22.144Z,99361.78
2022-11-26T18:19:52.470Z,99356.31
2022-11-26T18:22:23.020Z,99357.59
2022-11-26T18:24:57.044Z,99363.06
2022-11-26T18:27:27.860Z,99374.06
2022-11-26T18:29:56.315Z,99373.50
2022-11-26T18:32:24.547Z,99372.41
2022-11-26T18:34:54.342Z,99368.75
2022-11-26T18:37:22.570Z,99370.00
2022-11-26T18:39:50.968Z,99368.88
2022-11-26T18:45:10.210Z,99369.91
2022-11-26T18:47:38.786Z,99371.91
2022-11-26T18:50:10.132Z,99374.47
2022-11-26T18:52:38.928Z,99379.19
2022-11-26T18:55:08.836Z,99381.84
2022-11-26T18:57:37.082Z,99389.13
2022-11-26T19:00:07.181Z,99385.56
2022-11-26T19:02:36.226Z,99390.69
2022-11-26T19:05:04.892Z,99391.19
2022-11-26T19:07:34.976Z,99388.88
2022-11-26T19:10:03.193Z,99394.25
2022-11-26T19:12:31.876Z,99399.38
2022-11-26T19:15:00.028Z,99404.56
2022-11-26T19:17:28.492Z,99398.28
2022-11-26T19:19:56.637Z,99404.66
2022-11-26T19:22:25.079Z,99401.19
2022-11-26T19:24:54.706Z,99405.69
2022-11-26T19:27:23.161Z,99410.47
2022-11-26T19:29:51.453Z,99407.31
2022-11-26T19:32:20.183Z,99418.56
2022-11-26T19:34:48.220Z,99420.13
2022-11-26T19:37:16.858Z,99421.88
2022-11-26T19:39:45.185Z,99410.63
2022-11-26T19:42:15.935Z,99416.34
2022-11-26T19:44:44.162Z,99416.34
2022-11-26T19:47:12.723Z,99422.69
2022-11-26T19:49:41.134Z,99421.22
2022-11-26T19:52:09.952Z,99423.28
2022-11-26T19:54:38.099Z,99423.84
2022-11-26T19:57:07.300Z,99429.41
2022-11-26T19:59:37.165Z,99423.91
2022-11-26T20:02:06.397Z,99434.13
2022-11-26T20:04:34.528Z,99433.63
2022-11-26T20:07:03.292Z,99439.25
2022-11-26T20:09:31.506Z,99439.25
2022-11-26T20:12:00.149Z,99443.41
2022-11-26T20:14:28.559Z,99438.13
2022-11-26T20:17:01.063Z,99438.28
2022-11-26T20:19:29.979Z,99448.22
2022-11-26T20:22:01.515Z,99445.59
2022-11-26T20:24:30.064Z,99450.34
2022-11-26T20:27:00.904Z,99451.22
2022-11-26T20:29:29.176Z,99443.34
2022-11-26T20:31:59.835Z,99447.81
2022-11-26T20:34:30.062Z,99451.53
2022-11-26T20:36:58.676Z,99448.69
2022-11-26T20:39:28.794Z,99456.88
2022-11-26T20:41:57.383Z,99461.19
2022-11-26T20:44:26.979Z,99456.22
2022-11-26T20:46:57.417Z,99457.78
2022-11-26T20:49:32.203Z,99457.34
2022-11-26T20:52:02.964Z,99468.53
2022-11-26T20:54:31.551Z,99466.13
2022-11-26T20:57:00.492Z,99460.09
2022-11-26T20:59:29.114Z,99466.38
2022-11-26T21:01:58.158Z,99463.81
2022-11-26T21:04:28.737Z,99464.06
2022-11-26T21:06:57.910Z,99480.41
2022-11-26T21:09:26.313Z,99469.06
2022-11-26T21:11:54.820Z,99468.75
2022-11-26T21:14:22.975Z,99474.69
2022-11-26T21:16:53.952Z,99471.66
2022-11-26T21:19:22.247Z,99474.97
2022-11-26T21:21:52.286Z,99478.81
2022-11-26T21:24:21.521Z,99474.22
2022-11-26T21:26:50.033Z,99469.97
2022-11-26T21:29:18.273Z,99473.66
2022-11-26T21:31:46.722Z,99473.06
2022-11-26T21:34:15.793Z,99481.31
2022-11-26T21:36:45.159Z,99468.53
2022-11-26T21:39:16.777Z,99477.09
2022-11-26T21:41:45.641Z,99471.94
2022-11-26T21:44:13.924Z,99477.16
2022-11-26T21:46:42.385Z,99478.09
2022-11-26T21:49:10.836Z,99478.09
2022-11-26T21:51:39.490Z,99477.03
2022-11-26T21:54:07.723Z,99478.81
2022-11-26T21:56:38.641Z,99485.75
2022-11-26T21:59:06.755Z,99478.97
2022-11-26T22:01:37.276Z,99485.69
2022-11-26T22:04:11.835Z,99482.81
2022-11-26T22:06:40.575Z,99486.34
2022-11-26T22:09:09.532Z,99476.97
2022-11-26T22:11:42.274Z,99488.16
2022-11-26T22:14:12.819Z,99481.63
2022-11-26T22:16:41.386Z,99485.84
2022-11-26T22:19:09.999Z,99498.53
2022-11-26T22:21:40.611Z,99491.97
2022-11-26T22:24:11.532Z,99488.75
2022-11-26T22:26:41.508Z,99493.63
2022-11-26T22:29:11.499Z,99497.75
2022-11-26T22:31:40.118Z,99492.34
2022-11-26T22:34:11.233Z,99496.59
2022-11-26T22:36:40.762Z,99481.59
2022-11-26T22:39:12.306Z,99486.75
2022-11-26T22:41:43.236Z,99484.75
2022-11-26T22:44:12.048Z,99487.16
2022-11-26T22:46:40.386Z,99488.69
2022-11-26T22:49:11.569Z,99487.50
2022-11-26T22:51:39.891Z,99481.47
2022-11-26T22:54:09.605Z,99482.03
2022-11-26T22:56:39.050Z,99481.53
2022-11-26T22:59:11.789Z,99487.69
2022-11-26T23:01:40.211Z,99487.75
2022-11-26T23:04:09.941Z,99491.63
2022-11-26T23:06:38.885Z,99497.91
2022-11-26T23:09:08.853Z,99487.34
2022-11-26T23:11:39.072Z,99488.41
2022-11-26T23:14:12.089Z,99483.22
2022-11-26T23:16:42.459Z,99496.84
2022-11-26T23:19:11.380Z,99492.84
2022-11-26T23:21:41.814Z,99491.88
2022-11-26T23:24:10.232Z,99485.50
2022-11-26T23:26:39.925Z,99489.25
2022-11-26T23:29:09.884Z,99493.38
2022-11-26T23:31:41.099Z,99497.75
2022-11-26T23:34:10.366Z,99489.84
2022-11-26T23:36:39.425Z,99494.94
2022-11-26T23:39:08.731Z,99489.16
2022-11-26T23:41:37.832Z,99488.22
2022-11-26T23:44:06.353Z,99491.06
2022-11-26T23:46:36.537Z,99492.06
2022-11-26T23:49:05.237Z,99487.47
2022-11-26T23:51:34.442Z,99478.09
2022-11-26T23:54:02.508Z,99483.97
2022-11-26T23:56:34.710Z,99477.69
2022-11-26T23:59:04.424Z,99489.00
